createdAt,value
2023-08-08T00:00:40.681Z,4.09
2023-08-08T00:03:13.144Z,4.14
2023-08-08T00:05:45.557Z,4.24
2023-08-08T00:08:18.147Z,4.34
2023-08-08T00:10:53.171Z,4.24
2023-08-08T00:13:25.538Z,4.24
2023-08-08T00:15:57.926Z,4.31
2023-08-08T00:18:30.326Z,3.87
2023-08-08T00:21:05.680Z,3.78
2023-08-08T00:23:38.366Z,3.69
2023-08-08T00:26:13.244Z,3.78
2023-08-08T00:28:45.665Z,3.79
2023-08-08T00:31:19.135Z,4.04
2023-08-08T00:33:51.580Z,3.66
2023-08-08T00:36:23.859Z,3.79
2023-08-08T00:38:56.303Z,3.70
2023-08-08T00:41:31.684Z,3.21
2023-08-08T00:44:04.067Z,3.55
2023-08-08T00:46:37.375Z,3.84
2023-08-08T00:49:10.013Z,3.51
2023-08-08T00:51:43.471Z,3.65
2023-08-08T00:54:18.120Z,3.66
2023-08-08T00:56:53.239Z,3.59
2023-08-08T00:59:25.982Z,3.71
2023-08-08T01:01:58.918Z,3.51
2023-08-08T01:04:32.790Z,3.56
2023-08-08T01:07:17.354Z,3.94
2023-08-08T01:09:58.022Z,3.46
2023-08-08T01:12:33.468Z,3.77
2023-08-08T01:15:07.581Z,3.56
2023-08-08T01:17:41.618Z,3.36
2023-08-08T01:20:18.148Z,3.43
2023-08-08T01:23:00.890Z,3.57
2023-08-08T01:25:36.163Z,3.49
2023-08-08T01:28:09.968Z,3.36
2023-08-08T01:30:43.721Z,3.60
2023-08-08T01:33:16.086Z,3.28
2023-08-08T01:35:52.844Z,3.31
2023-08-08T01:38:31.768Z,3.22
2023-08-08T01:41:09.647Z,3.36
2023-08-08T01:43:44.065Z,3.49
2023-08-08T01:46:18.103Z,3.44
2023-08-08T01:48:50.919Z,3.79
2023-08-08T01:51:25.362Z,3.49
2023-08-08T01:53:57.840Z,3.46
2023-08-08T01:56:32.779Z,3.46
2023-08-08T01:59:05.263Z,3.64
2023-08-08T02:01:37.652Z,3.42
2023-08-08T02:04:10.200Z,3.60
2023-08-08T02:06:42.481Z,3.76
2023-08-08T02:09:16.162Z,3.78
2023-08-08T02:11:51.167Z,3.61
2023-08-08T02:14:23.534Z,3.74
2023-08-08T02:16:55.872Z,3.94
2023-08-08T02:19:28.205Z,3.76
2023-08-08T02:22:01.091Z,3.66
2023-08-08T02:24:33.643Z,3.85
2023-08-08T02:27:09.564Z,3.83
2023-08-08T02:29:42.099Z,3.66
2023-08-08T02:32:14.571Z,3.51
2023-08-08T02:34:46.924Z,3.66
2023-08-08T02:37:19.218Z,3.66
2023-08-08T02:39:51.584Z,3.97
2023-08-08T02:42:26.735Z,4.13
2023-08-08T02:44:59.118Z,4.01
2023-08-08T02:47:31.417Z,4.15
2023-08-08T02:50:03.895Z,4.17
2023-08-08T02:52:36.215Z,4.03
2023-08-08T02:55:09.487Z,4.13
2023-08-08T02:57:44.690Z,3.94
2023-08-08T03:00:18.491Z,4.09
2023-08-08T03:02:50.902Z,3.86
2023-08-08T03:05:23.358Z,4.08
2023-08-08T03:07:55.755Z,3.95
2023-08-08T03:10:28.052Z,4.19
2023-08-08T03:13:03.076Z,4.01
2023-08-08T03:15:36.635Z,4.11
2023-08-08T03:18:09.653Z,4.42
2023-08-08T03:20:42.008Z,4.40
2023-08-08T03:23:14.422Z,4.48
2023-08-08T03:25:46.825Z,4.41
2023-08-08T03:28:21.989Z,4.57
2023-08-08T03:30:54.325Z,4.57
2023-08-08T03:33:26.603Z,4.64
2023-08-08T03:35:58.976Z,4.24
2023-08-08T03:38:31.588Z,4.14
2023-08-08T03:41:04.231Z,4.51
2023-08-08T03:43:39.257Z,4.32
2023-08-08T03:46:12.923Z,4.24
2023-08-08T03:48:45.466Z,4.94
2023-08-08T03:51:17.816Z,4.79
2023-08-08T03:53:50.110Z,4.74
2023-08-08T03:56:22.447Z,5.14
2023-08-08T03:58:57.992Z,4.94
2023-08-08T04:01:30.328Z,5.30
2023-08-08T04:04:02.700Z,5.09
2023-08-08T04:06:35.021Z,5.08
2023-08-08T04:09:08.031Z,4.94
2023-08-08T04:11:40.439Z,5.30
2023-08-08T04:14:15.662Z,5.35
2023-08-08T04:16:48.000Z,5.22
2023-08-08T04:19:20.447Z,5.04
2023-08-08T04:21:52.793Z,4.52
2023-08-08T04:24:25.027Z,4.59
2023-08-08T04:26:57.378Z,4.72
2023-08-08T04:29:32.404Z,4.42
2023-08-08T04:32:04.786Z,4.53
2023-08-08T04:34:37.109Z,4.70
2023-08-08T04:37:10.113Z,4.56
2023-08-08T04:39:44.787Z,4.51
2023-08-08T04:42:17.145Z,4.32
2023-08-08T04:44:52.055Z,4.65
2023-08-08T04:47:24.406Z,4.47
2023-08-08T04:49:57.037Z,4.54
2023-08-08T04:52:29.477Z,4.79
2023-08-08T04:55:01.767Z,4.69
2023-08-08T04:57:34.016Z,4.68
2023-08-08T05:00:10.426Z,4.35
2023-08-08T05:02:43.060Z,4.15
2023-08-08T05:05:16.908Z,4.66
2023-08-08T05:07:50.356Z,4.34
2023-08-08T05:10:22.729Z,4.30
2023-08-08T05:12:55.015Z,4.11
2023-08-08T05:15:29.971Z,3.94
2023-08-08T05:18:02.678Z,4.04
2023-08-08T05:20:35.048Z,4.09
2023-08-08T05:23:07.475Z,4.04
2023-08-08T05:25:39.858Z,4.36
2023-08-08T05:28:12.844Z,4.29
2023-08-08T05:30:47.931Z,4.06
2023-08-08T05:33:20.379Z,3.91
2023-08-08T05:35:52.659Z,3.99
2023-08-08T05:38:25.388Z,3.57
2023-08-08T05:40:57.604Z,4.00
2023-08-08T05:43:30.921Z,3.89
2023-08-08T05:46:05.981Z,3.69
2023-08-08T05:48:38.570Z,3.46
2023-08-08T05:51:11.515Z,3.44
2023-08-08T05:53:43.921Z,3.44
2023-08-08T05:56:17.144Z,3.45
2023-08-08T05:58:49.679Z,3.22
2023-08-08T06:01:24.892Z,3.26
2023-08-08T06:03:57.247Z,2.96
2023-08-08T06:06:29.655Z,2.87
2023-08-08T06:09:09.959Z,3.13
2023-08-08T06:11:42.378Z,2.67
2023-08-08T06:14:14.925Z,2.65
2023-08-08T06:16:50.118Z,2.39
2023-08-08T06:19:22.483Z,2.37
2023-08-08T06:21:54.855Z,2.40
2023-08-08T06:24:27.175Z,2.11
2023-08-08T06:26:59.488Z,2.14
2023-08-08T06:29:32.087Z,1.95
2023-08-08T06:32:07.615Z,2.05
2023-08-08T06:34:40.012Z,1.89
2023-08-08T06:37:12.735Z,1.84
2023-08-08T06:39:46.311Z,1.68
2023-08-08T06:42:18.701Z,1.88
2023-08-08T06:44:51.156Z,1.95
2023-08-08T06:47:26.223Z,1.84
2023-08-08T06:49:58.706Z,1.77
2023-08-08T06:52:31.222Z,1.70
2023-08-08T06:55:03.580Z,1.47
2023-08-08T06:57:38.930Z,1.56
2023-08-08T07:00:14.803Z,1.54
2023-08-08T07:02:49.781Z,1.52
2023-08-08T07:05:23.766Z,1.44
2023-08-08T07:07:56.756Z,1.51
2023-08-08T07:10:29.201Z,1.37
2023-08-08T07:13:01.556Z,1.61
2023-08-08T07:15:33.945Z,1.30
2023-08-08T07:18:10.176Z,1.49
2023-08-08T07:20:43.032Z,1.45
2023-08-08T07:23:15.655Z,1.49
2023-08-08T07:25:49.290Z,1.46
2023-08-08T07:28:22.455Z,1.34
2023-08-08T07:30:55.115Z,1.35
2023-08-08T07:33:30.097Z,1.43
2023-08-08T07:36:02.561Z,1.32
2023-08-08T07:38:37.998Z,1.49
2023-08-08T07:41:12.437Z,1.41
2023-08-08T07:43:44.665Z,1.39
2023-08-08T07:46:17.630Z,1.25
2023-08-08T07:48:52.814Z,1.14
2023-08-08T07:51:25.397Z,1.15
2023-08-08T07:53:57.663Z,1.16
2023-08-08T07:56:30.060Z,1.29
2023-08-08T07:59:03.448Z,1.06
2023-08-08T08:01:35.816Z,1.19
2023-08-08T08:04:10.798Z,1.23
2023-08-08T08:06:45.037Z,1.21
2023-08-08T08:09:17.618Z,1.09
2023-08-08T08:11:49.807Z,1.19
2023-08-08T08:14:22.196Z,0.93
2023-08-08T08:16:54.887Z,1.06
2023-08-08T08:19:37.399Z,1.05
2023-08-08T08:22:10.399Z,1.01
2023-08-08T08:24:42.665Z,0.95
2023-08-08T08:27:15.004Z,0.88
2023-08-08T08:29:47.448Z,0.99
2023-08-08T08:32:19.957Z,0.94
2023-08-08T08:34:54.814Z,0.88
2023-08-08T08:37:27.091Z,0.87
2023-08-08T08:39:59.546Z,1.01
2023-08-08T08:42:34.003Z,0.93
2023-08-08T08:45:08.510Z,0.97
2023-08-08T08:47:42.823Z,0.74
2023-08-08T08:50:20.203Z,0.92
2023-08-08T08:52:52.688Z,0.82
2023-08-08T08:55:24.981Z,0.78
2023-08-08T08:57:58.003Z,0.75
2023-08-08T09:00:30.427Z,0.77
2023-08-08T09:03:07.032Z,0.71
2023-08-08T09:05:46.232Z,0.79
2023-08-08T09:08:19.114Z,0.74
2023-08-08T09:10:52.100Z,0.88
2023-08-08T09:13:27.294Z,0.84
2023-08-08T09:16:00.022Z,0.72
2023-08-08T09:18:32.713Z,0.70
2023-08-08T09:21:07.706Z,0.82
2023-08-08T09:23:44.027Z,0.75
2023-08-08T09:26:19.432Z,0.81
2023-08-08T09:28:53.116Z,0.81
2023-08-08T09:31:25.367Z,0.88
2023-08-08T09:33:59.577Z,0.74
2023-08-08T09:36:34.727Z,0.89
2023-08-08T09:39:08.679Z,1.04
2023-08-08T09:41:41.072Z,1.25
2023-08-08T09:44:13.884Z,1.01
2023-08-08T09:46:46.770Z,0.94
2023-08-08T09:49:20.444Z,0.94
2023-08-08T09:51:55.585Z,1.07
2023-08-08T09:54:29.530Z,0.94
2023-08-08T09:57:03.667Z,0.98
2023-08-08T09:59:37.086Z,0.91
2023-08-08T10:02:10.612Z,0.97
2023-08-08T10:04:44.399Z,0.98
2023-08-08T10:07:19.809Z,1.06
2023-08-08T10:09:53.713Z,0.97
2023-08-08T10:12:27.778Z,1.11
2023-08-08T10:15:02.014Z,0.96
2023-08-08T10:17:41.278Z,1.19
2023-08-08T10:20:18.874Z,1.11
2023-08-08T10:22:59.102Z,1.01
2023-08-08T10:25:37.109Z,1.20
2023-08-08T10:28:26.285Z,1.20
2023-08-08T10:31:02.974Z,1.07
2023-08-08T10:33:47.448Z,1.10
2023-08-08T10:36:19.773Z,1.01
2023-08-08T10:38:56.288Z,1.24
2023-08-08T10:41:32.394Z,1.19
2023-08-08T10:44:04.659Z,1.28
2023-08-08T10:46:39.714Z,1.28
2023-08-08T10:49:12.414Z,1.03
2023-08-08T10:51:48.231Z,1.15
2023-08-08T10:54:30.405Z,0.97
2023-08-08T10:57:05.045Z,1.09
2023-08-08T10:59:43.083Z,1.07
2023-08-08T11:02:15.666Z,1.21
2023-08-08T11:04:48.597Z,1.04
2023-08-08T11:07:21.301Z,1.09
2023-08-08T11:09:57.268Z,0.96
2023-08-08T11:12:29.597Z,1.03
2023-08-08T11:15:01.885Z,0.90
2023-08-08T11:17:34.492Z,1.06
2023-08-08T11:20:07.648Z,0.96
2023-08-08T11:22:39.979Z,0.88
2023-08-08T11:25:15.037Z,0.93
2023-08-08T11:27:55.065Z,1.02
2023-08-08T11:30:29.317Z,1.19
2023-08-08T11:35:38.025Z,0.86
2023-08-08T11:38:11.319Z,0.89
2023-08-08T11:40:47.047Z,0.93
2023-08-08T11:43:19.733Z,0.85
2023-08-08T11:45:55.123Z,0.94
2023-08-08T11:48:27.601Z,1.00
2023-08-08T11:50:59.977Z,0.86
2023-08-08T11:53:32.256Z,0.96
2023-08-08T11:56:08.785Z,0.87
2023-08-08T11:58:41.548Z,0.94
2023-08-08T12:01:15.591Z,0.96
2023-08-08T12:03:47.908Z,0.94
2023-08-08T12:06:20.745Z,0.91
2023-08-08T12:08:53.714Z,0.91
2023-08-08T12:14:05.597Z,0.95
2023-08-08T12:16:37.905Z,0.96
2023-08-08T12:19:15.751Z,1.03
2023-08-08T12:21:48.081Z,1.07
2023-08-08T12:24:20.409Z,1.02
2023-08-08T12:26:55.375Z,0.94
2023-08-08T12:29:27.892Z,1.02
2023-08-08T12:32:00.235Z,0.98
2023-08-08T12:34:32.606Z,1.01
2023-08-08T12:37:04.913Z,0.96
2023-08-08T12:39:37.403Z,0.93
2023-08-08T12:42:12.597Z,0.99
2023-08-08T12:44:44.928Z,0.99
2023-08-08T12:47:17.568Z,0.94
2023-08-08T12:49:49.938Z,0.99
2023-08-08T12:52:23.653Z,1.03
2023-08-08T12:54:56.588Z,1.05
2023-08-08T12:57:32.854Z,1.06
2023-08-08T13:00:05.369Z,1.09
2023-08-08T13:02:38.743Z,0.98
2023-08-08T13:05:11.520Z,1.02
2023-08-08T13:07:44.082Z,1.11
2023-08-08T13:10:20.707Z,1.18
2023-08-08T13:12:56.487Z,1.02
2023-08-08T13:15:29.054Z,1.14
2023-08-08T13:18:01.444Z,0.99
2023-08-08T13:20:33.877Z,0.96
2023-08-08T13:23:06.089Z,1.11
2023-08-08T13:25:38.385Z,1.01
2023-08-08T13:28:15.930Z,1.06
2023-08-08T13:30:48.351Z,1.18
2023-08-08T13:33:22.136Z,1.11
2023-08-08T13:35:54.504Z,1.21
2023-08-08T13:38:26.951Z,1.15
2023-08-08T13:41:01.411Z,1.20
2023-08-08T13:43:36.267Z,1.12
2023-08-08T13:46:11.150Z,1.17
2023-08-08T13:48:44.090Z,1.15
2023-08-08T13:51:16.455Z,1.23
2023-08-08T13:53:50.301Z,1.14
2023-08-08T13:56:23.427Z,1.11
2023-08-08T13:58:58.472Z,1.15
2023-08-08T14:01:30.814Z,1.11
2023-08-08T14:04:03.172Z,1.16
2023-08-08T14:06:36.664Z,1.23
2023-08-08T14:09:11.083Z,1.16
2023-08-08T14:11:43.649Z,1.17
2023-08-08T14:14:18.553Z,1.28
2023-08-08T14:16:50.864Z,1.29
2023-08-08T14:19:24.386Z,1.31
2023-08-08T14:21:56.800Z,1.26
2023-08-08T14:24:29.169Z,1.22
2023-08-08T14:27:02.027Z,1.24
2023-08-08T14:29:37.094Z,1.29
2023-08-08T14:32:10.428Z,1.29
2023-08-08T14:34:43.012Z,1.09
2023-08-08T14:37:15.518Z,1.20
2023-08-08T14:39:47.997Z,1.16
2023-08-08T14:42:20.653Z,0.94
2023-08-08T14:44:55.641Z,1.06
2023-08-08T14:47:28.191Z,1.04
2023-08-08T14:50:00.714Z,1.05
2023-08-08T14:52:33.059Z,1.05
2023-08-08T14:55:05.778Z,1.16
2023-08-08T14:57:38.094Z,1.20
2023-08-08T15:00:15.584Z,1.21
2023-08-08T15:02:47.906Z,1.19
2023-08-08T15:05:20.175Z,1.35
2023-08-08T15:07:52.627Z,1.21
2023-08-08T15:10:24.933Z,1.43
2023-08-08T15:12:57.306Z,1.35
2023-08-08T15:15:32.274Z,1.44
2023-08-08T15:18:04.855Z,1.24
2023-08-08T15:20:37.503Z,1.26
2023-08-08T15:23:11.502Z,1.35
2023-08-08T15:25:43.835Z,1.34
2023-08-08T15:28:16.504Z,1.43
2023-08-08T15:30:51.690Z,1.48
2023-08-08T15:33:24.165Z,1.36
2023-08-08T15:35:57.934Z,1.43
2023-08-08T15:38:30.795Z,1.53
2023-08-08T15:41:03.306Z,1.31
2023-08-08T15:43:35.961Z,1.53
2023-08-08T15:46:13.406Z,1.60
2023-08-08T15:48:45.865Z,1.61
2023-08-08T15:51:18.407Z,1.62
2023-08-08T15:53:50.788Z,1.76
2023-08-08T15:56:23.612Z,1.80
2023-08-08T15:58:56.048Z,1.89
2023-08-08T16:01:31.067Z,1.71
2023-08-08T16:04:03.449Z,1.93
2023-08-08T16:06:35.763Z,2.01
2023-08-08T16:09:09.172Z,1.77
2023-08-08T16:11:41.543Z,1.77
2023-08-08T16:14:13.992Z,1.88
2023-08-08T16:16:49.854Z,1.81
2023-08-08T16:19:25.165Z,1.98
2023-08-08T16:21:57.445Z,1.74
2023-08-08T16:24:30.143Z,1.86
2023-08-08T16:27:02.930Z,1.74
2023-08-08T16:29:35.647Z,1.84
2023-08-08T16:32:10.809Z,1.76
2023-08-08T16:34:43.155Z,2.02
2023-08-08T16:37:15.399Z,1.94
2023-08-08T16:39:48.028Z,1.98
2023-08-08T16:42:20.421Z,2.05
2023-08-08T16:44:52.832Z,1.96
2023-08-08T16:47:27.762Z,1.84
2023-08-08T16:50:00.243Z,1.89
2023-08-08T16:52:32.573Z,1.86
2023-08-08T16:55:04.922Z,1.99
2023-08-08T16:57:37.851Z,1.96
2023-08-08T17:00:12.104Z,1.96
2023-08-08T17:02:47.271Z,2.05
2023-08-08T17:05:20.131Z,1.94
2023-08-08T17:07:52.389Z,1.81
2023-08-08T17:10:24.722Z,2.01
2023-08-08T17:12:57.079Z,1.99
2023-08-08T17:15:29.963Z,1.88
2023-08-08T17:18:05.831Z,1.66
2023-08-08T17:20:38.341Z,1.80
2023-08-08T17:23:10.722Z,2.01
2023-08-08T17:25:43.095Z,1.86
2023-08-08T17:28:15.515Z,1.74
2023-08-08T17:30:48.765Z,1.89
2023-08-08T17:33:23.782Z,1.86
2023-08-08T17:35:56.159Z,2.01
2023-08-08T17:38:28.822Z,1.89
2023-08-08T17:41:01.193Z,1.84
2023-08-08T17:43:33.449Z,1.83
2023-08-08T17:46:05.761Z,2.03
2023-08-08T17:48:40.836Z,1.98
2023-08-08T17:51:13.342Z,1.99
2023-08-08T17:53:45.749Z,2.23
2023-08-08T17:56:18.281Z,2.24
2023-08-08T17:58:50.867Z,2.28
2023-08-08T18:01:23.382Z,2.39
2023-08-08T18:03:58.298Z,2.23
2023-08-08T18:06:31.797Z,2.32
2023-08-08T18:09:05.212Z,2.37
2023-08-08T18:11:39.725Z,2.29
2023-08-08T18:14:13.919Z,2.35
2023-08-08T18:16:46.274Z,2.42
2023-08-08T18:19:23.420Z,2.32
2023-08-08T18:21:55.735Z,2.16
2023-08-08T18:24:28.515Z,2.55
2023-08-08T18:27:00.770Z,2.63
2023-08-08T18:29:33.281Z,2.38
2023-08-08T18:32:05.801Z,2.28
2023-08-08T18:34:40.733Z,2.45
2023-08-08T18:37:13.177Z,2.29
2023-08-08T18:39:45.750Z,2.56
2023-08-08T18:42:18.128Z,2.69
2023-08-08T18:44:50.409Z,2.54
2023-08-08T18:47:22.721Z,2.54
2023-08-08T18:49:57.722Z,2.65
2023-08-08T18:52:30.055Z,2.63
2023-08-08T18:55:02.354Z,2.64
2023-08-08T18:57:35.337Z,2.51
2023-08-08T19:00:09.055Z,2.66
2023-08-08T19:02:41.442Z,2.82
2023-08-08T19:05:18.755Z,2.68
2023-08-08T19:07:52.529Z,2.86
2023-08-08T19:10:25.060Z,2.61
2023-08-08T19:12:57.350Z,2.87
2023-08-08T19:15:30.212Z,2.89
2023-08-08T19:18:02.617Z,3.04
2023-08-08T19:20:37.480Z,2.84
2023-08-08T19:23:09.775Z,2.61
2023-08-08T19:25:42.591Z,2.84
2023-08-08T19:28:16.482Z,2.80
2023-08-08T19:30:49.016Z,2.90
2023-08-08T19:33:21.342Z,3.02
2023-08-08T19:35:57.610Z,2.97
2023-08-08T19:38:30.174Z,3.20
2023-08-08T19:41:05.749Z,2.99
2023-08-08T19:43:38.068Z,3.23
2023-08-08T19:46:11.819Z,3.10
2023-08-08T19:48:46.014Z,3.07
2023-08-08T19:51:21.465Z,2.98
2023-08-08T19:53:53.827Z,3.04
2023-08-08T19:56:26.197Z,3.03
2023-08-08T19:58:58.585Z,3.29
2023-08-08T20:01:31.062Z,3.46
2023-08-08T20:04:05.829Z,3.46
2023-08-08T20:06:40.908Z,4.53
2023-08-08T20:09:13.343Z,3.19
2023-08-08T20:11:45.652Z,3.08
2023-08-08T20:14:18.021Z,3.10
2023-08-08T20:16:50.344Z,3.44
2023-08-08T20:19:22.927Z,3.24
2023-08-08T20:21:57.908Z,2.99
2023-08-08T20:24:32.421Z,3.03
2023-08-08T20:27:04.961Z,2.85
2023-08-08T20:29:37.621Z,2.92
2023-08-08T20:32:09.942Z,3.28
2023-08-08T20:34:42.560Z,3.26
2023-08-08T20:37:18.659Z,3.46
2023-08-08T20:39:52.113Z,3.60
2023-08-08T20:42:24.402Z,3.89
2023-08-08T20:44:56.773Z,3.80
2023-08-08T20:47:29.115Z,4.10
2023-08-08T20:50:01.589Z,4.34
2023-08-08T20:52:37.189Z,4.78
2023-08-08T20:55:10.760Z,5.14
2023-08-08T20:57:43.139Z,5.46
2023-08-08T21:00:18.429Z,4.62
2023-08-08T21:02:50.928Z,4.56
2023-08-08T21:05:23.482Z,4.22
2023-08-08T21:08:01.136Z,4.12
2023-08-08T21:10:33.635Z,3.90
2023-08-08T21:13:06.108Z,3.88
2023-08-08T21:15:38.601Z,3.40
2023-08-08T21:18:10.992Z,3.42
2023-08-08T21:20:43.380Z,3.64
2023-08-08T21:23:18.461Z,3.87
2023-08-08T21:25:50.809Z,4.01
2023-08-08T21:28:24.442Z,4.27
2023-08-08T21:30:56.788Z,4.31
2023-08-08T21:33:29.190Z,4.36
2023-08-08T21:36:01.482Z,3.99
2023-08-08T21:38:37.276Z,4.19
2023-08-08T21:41:09.602Z,4.23
2023-08-08T21:43:42.457Z,4.00
2023-08-08T21:46:15.661Z,4.09
2023-08-08T21:48:48.247Z,4.36
2023-08-08T21:51:20.544Z,4.06
2023-08-08T21:53:55.661Z,4.30
2023-08-08T21:56:29.441Z,4.09
2023-08-08T21:59:02.026Z,4.11
2023-08-08T22:01:34.648Z,3.97
2023-08-08T22:04:07.629Z,3.98
2023-08-08T22:06:40.007Z,3.84
2023-08-08T22:09:15.563Z,3.93
2023-08-08T22:11:47.923Z,3.70
2023-08-08T22:14:20.283Z,3.96
2023-08-08T22:16:52.722Z,4.14
2023-08-08T22:19:27.145Z,4.16
2023-08-08T22:21:59.457Z,3.92
2023-08-08T22:24:35.123Z,3.52
2023-08-08T22:27:07.743Z,3.69
2023-08-08T22:29:40.568Z,3.73
2023-08-08T22:32:12.975Z,3.54
2023-08-08T22:34:45.245Z,3.57
2023-08-08T22:37:17.797Z,3.36
2023-08-08T22:39:53.070Z,3.12
2023-08-08T22:42:25.364Z,3.39
2023-08-08T22:44:57.660Z,3.44
2023-08-08T22:47:29.993Z,3.36
2023-08-08T22:50:02.923Z,3.68
2023-08-08T22:52:35.323Z,4.06
2023-08-08T22:55:11.553Z,4.44
2023-08-08T22:57:44.208Z,4.60
2023-08-08T23:00:19.623Z,4.78
2023-08-08T23:02:52.748Z,4.86
2023-08-08T23:05:25.696Z,5.19
2023-08-08T23:07:58.234Z,5.41
2023-08-08T23:10:33.279Z,5.25
2023-08-08T23:13:05.706Z,5.59
2023-08-08T23:15:40.374Z,5.41
2023-08-08T23:18:14.906Z,6.06
2023-08-08T23:20:49.124Z,6.46
2023-08-08T23:23:21.571Z,6.32
2023-08-08T23:25:57.159Z,7.24
2023-08-08T23:28:29.731Z,7.46
2023-08-08T23:31:02.094Z,7.57
2023-08-08T23:33:34.441Z,8.26
2023-08-08T23:36:07.623Z,7.89
2023-08-08T23:38:42.142Z,9.46
2023-08-08T23:41:19.035Z,9.70
2023-08-08T23:43:51.860Z,10.54
2023-08-08T23:46:24.468Z,10.69
2023-08-08T23:48:57.070Z,10.05
2023-08-08T23:51:29.358Z,9.71
2023-08-08T23:54:01.821Z,10.47
2023-08-08T23:56:36.718Z,10.19
2023-08-08T23:59:09.305Z,10.74
